Time;durP1;ratioP1;P1;durP2;ratioP2;P2;SDS_P1;SDS_P2;PMS_P1;PMS_P2;Temp;Humidity;BMP_temperature;BMP_pressure;BME280_temperature;BME280_humidity;BME280_pressure;Samples;Min_cycle;Max_cycle;Signal;HPM_P1;HPM_P2
2023/01/27 00:02:17;;;;;;;29.80;18.40;;;;;;;0.45;83.00;100859.41;107309;1259;89245;-54
2023/01/27 00:04:51;;;;;;;31.70;18.80;;;;;;;0.46;83.00;100857.19;107296;1259;94804;-55
2023/01/27 00:07:29;;;;;;;32.00;19.20;;;;;;;0.47;82.99;100860.34;107308;1259;81378;-55
2023/01/27 00:10:07;;;;;;;28.70;19.40;;;;;;;0.49;83.01;100854.36;107297;1256;82127;-56
2023/01/27 00:15:38;;;;;;;30.20;18.60;;;;;;;0.44;82.90;100852.77;107308;1259;88328;-56
2023/01/27 00:18:18;;;;;;;30.50;19.80;;;;;;;0.47;82.86;100856.23;107295;1259;93460;-55
2023/01/27 00:26:37;;;;;;;28.90;19.20;;;;;;;0.52;82.99;100857.84;107309;1259;100179;-55
2023/01/27 00:29:15;;;;;;;34.20;19.40;;;;;;;0.53;83.04;100855.27;107300;1259;88901;-55
2023/01/27 00:34:48;;;;;;;29.50;18.00;;;;;;;0.51;83.03;100862.52;107353;1256;81271;-54
2023/01/27 00:37:27;;;;;;;31.80;19.70;;;;;;;0.53;83.05;100865.58;107319;1256;82830;-56
2023/01/27 00:40:06;;;;;;;34.40;19.60;;;;;;;0.50;83.05;100862.98;107370;1257;98005;-54
2023/01/27 00:42:40;;;;;;;31.30;18.90;;;;;;;0.51;83.13;100864.84;107353;1259;89053;-54
2023/01/27 00:48:06;;;;;;;31.80;20.20;;;;;;;0.48;83.13;100868.42;107266;1260;79481;-57
2023/01/27 00:50:44;;;;;;;;;;;;;;;0.46;83.02;100875.48;107351;1259;82265;-54
2023/01/27 00:53:19;;;;;;;30.80;18.50;;;;;;;0.43;83.00;100875.93;107295;1257;99489;-54
2023/01/27 00:55:58;;;;;;;30.10;19.30;;;;;;;0.41;82.94;100876.42;107329;1259;87327;-55
2023/01/27 00:58:35;;;;;;;31.20;19.20;;;;;;;0.40;82.88;100879.29;107270;1257;94092;-56
2023/01/27 01:01:12;;;;;;;30.70;19.20;;;;;;;0.41;82.93;100880.84;107326;1256;82495;-56
2023/01/27 01:03:49;;;;;;;29.70;18.90;;;;;;;0.41;82.84;100880.14;107296;1259;83172;-56
2023/01/27 01:06:30;;;;;;;36.10;21.40;;;;;;;0.43;82.90;100878.86;107314;1259;99659;-56
2023/01/27 01:09:10;;;;;;;32.30;20.30;;;;;;;0.46;82.97;100871.77;107351;1257;87376;-54
2023/01/27 01:11:49;;;;;;;32.20;20.00;;;;;;;0.50;82.97;100869.18;107363;1257;93221;-54
2023/01/27 01:14:23;;;;;;;33.30;21.90;;;;;;;0.52;83.07;100869.02;107384;1256;79755;-54
2023/01/27 01:16:57;;;;;;;35.20;21.00;;;;;;;0.52;83.18;100866.71;107423;1256;82319;-55
2023/01/27 01:19:29;;;;;;;;;;;;;;;0.50;83.38;100871.48;107430;1256;99279;-56
2023/01/27 01:22:10;;;;;;;31.20;18.40;;;;;;;0.51;83.33;100869.79;107396;1257;89204;-56
2023/01/27 01:24:47;;;;;;;31.10;19.00;;;;;;;0.51;83.28;100875.62;107330;1256;93866;-54
2023/01/27 01:27:23;;;;;;;30.00;18.70;;;;;;;0.51;83.35;100872.42;107335;1259;81302;-54
2023/01/27 01:30:00;;;;;;;30.30;19.40;;;;;;;0.53;83.34;100871.05;107390;1255;82456;-55
2023/01/27 01:32:33;;;;;;;31.20;19.90;;;;;;;0.50;83.34;100873.19;107268;1255;99331;-53
2023/01/27 01:35:07;;;;;;;32.90;20.20;;;;;;;0.43;83.26;100873.21;107319;1259;89545;-54
2023/01/27 01:37:38;;;;;;;33.70;19.20;;;;;;;0.40;83.37;100870.74;107287;1259;92476;-53
2023/01/27 01:40:14;;;;;;;30.90;19.50;;;;;;;0.40;83.43;100872.17;107343;1259;79701;-54
2023/01/27 01:43:13;;;;;;;29.60;19.40;;;;;;;0.38;83.51;100872.92;107299;1257;80802;-55
2023/01/27 01:45:59;;;;;;;32.90;19.90;;;;;;;0.36;83.70;100873.20;107318;1258;101093;-53
2023/01/27 01:48:41;;;;;;;34.20;20.20;;;;;;;0.36;83.63;100875.19;107287;1259;87738;-53
2023/01/27 01:51:22;;;;;;;31.00;19.00;;;;;;;0.34;83.66;100873.20;107346;1256;94796;-55
2023/01/27 01:54:04;;;;;;;31.80;19.30;;;;;;;0.32;83.73;100874.54;107311;1259;78555;-56
2023/01/27 01:56:42;;;;;;;32.20;19.90;;;;;;;0.37;83.73;100878.30;107416;1259;82826;-56
2023/01/27 01:59:25;;;;;;;31.80;19.00;;;;;;;0.37;83.89;100876.16;107371;1259;99860;-57
2023/01/27 02:02:12;;;;;;;31.70;19.70;;;;;;;0.36;83.98;100872.68;107364;1259;88335;-56
2023/01/27 02:05:03;;;;;;;31.60;20.00;;;;;;;0.37;84.04;100869.23;107389;1257;94771;-55
2023/01/27 02:07:57;;;;;;;33.40;19.90;;;;;;;0.39;84.03;100866.42;107319;1257;79688;-56
2023/01/27 02:10:34;;;;;;;30.30;19.50;;;;;;;0.43;84.14;100870.06;107328;1257;82713;-56
2023/01/27 02:13:08;;;;;;;33.40;20.60;;;;;;;0.42;83.96;100873.31;107331;1257;100162;-56
2023/01/27 02:15:40;;;;;;;35.10;20.90;;;;;;;0.42;84.07;100873.67;107339;1258;89597;-55
2023/01/27 02:18:19;;;;;;;37.00;21.90;;;;;;;0.43;84.12;100879.76;107285;1259;94209;-56
2023/01/27 02:20:56;;;;;;;33.20;21.20;;;;;;;0.47;83.99;100874.31;107309;1257;81260;-54
2023/01/27 02:23:45;;;;;;;32.70;21.00;;;;;;;0.47;84.08;100867.93;107317;1257;80906;-54
2023/01/27 02:26:21;;;;;;;32.70;21.20;;;;;;;0.45;83.97;100869.91;107334;1259;98607;-56
2023/01/27 02:29:03;;;;;;;32.80;20.70;;;;;;;0.43;83.92;100870.38;107329;1259;88049;-56
2023/01/27 02:31:42;;;;;;;35.40;20.40;;;;;;;0.44;84.08;100876.54;107299;1256;95896;-54
2023/01/27 02:34:20;;;;;;;33.10;21.40;;;;;;;0.45;83.99;100876.67;107297;1258;79622;-54
2023/01/27 02:36:58;;;;;;;37.80;21.90;;;;;;;0.43;83.99;100879.98;107352;1259;82941;-54
2023/01/27 02:39:40;;;;;;;30.80;20.60;;;;;;;0.42;84.06;100881.09;107332;1258;99487;-54
2023/01/27 02:42:17;;;;;;;33.30;20.60;;;;;;;0.41;83.98;100880.27;107454;1259;88179;-56
2023/01/27 02:44:50;;;;;;;36.50;21.60;;;;;;;0.43;83.96;100876.10;107495;1259;92818;-56
2023/01/27 02:47:28;;;;;;;34.10;21.10;;;;;;;0.44;84.01;100878.48;107451;1254;80478;-56
2023/01/27 02:50:07;;;;;;;35.00;21.00;;;;;;;0.48;84.11;100871.11;107475;1257;83195;-53
2023/01/27 02:52:43;;;;;;;33.60;20.80;;;;;;;0.48;84.13;100875.48;107454;1254;99376;-53
2023/01/27 02:55:23;;;;;;;34.60;20.80;;;;;;;0.49;84.08;100873.84;107434;1254;87247;-56
2023/01/27 02:58:02;;;;;;;34.80;21.50;;;;;;;0.44;83.99;100877.91;107414;1254;95738;-55
2023/01/27 03:00:43;;;;;;;36.30;20.60;;;;;;;0.44;84.01;100879.48;107409;1259;79402;-57
2023/01/27 03:03:22;;;;;;;35.30;21.40;;;;;;;0.44;83.86;100882.90;107402;1253;81104;-55
2023/01/27 03:05:57;;;;;;;37.30;21.20;;;;;;;0.44;83.81;100878.69;107398;1259;98498;-54
2023/01/27 03:08:37;;;;;;;31.20;19.70;;;;;;;0.39;83.68;100882.20;107439;1259;89058;-55
2023/01/27 03:12:18;;;;;;;34.40;21.40;;;;;;;0.35;83.69;100882.48;107395;1267;94118;-56
2023/01/27 03:14:18;;;;;;;30.70;19.80;;;;;;;0.39;83.75;100883.48;107400;1257;80162;-55
2023/01/27 03:19:52;;;;;;;33.80;20.20;;;;;;;0.40;83.90;100880.71;107451;1259;100244;-55
2023/01/27 03:22:35;;;;;;;31.90;20.40;;;;;;;0.41;84.05;100879.01;107424;1259;88774;-56
2023/01/27 03:25:10;;;;;;;31.90;19.80;;;;;;;0.45;84.04;100884.02;107456;1258;94062;-53
2023/01/27 03:27:44;;;;;;;31.70;20.10;;;;;;;0.47;83.82;100883.73;107462;1256;78692;-53
2023/01/27 03:30:18;;;;;;;31.60;20.90;;;;;;;0.45;83.78;100882.69;107511;1254;80609;-53
2023/01/27 03:32:54;;;;;;;33.70;20.20;;;;;;;0.42;83.76;100882.52;107486;1257;97739;-54
2023/01/27 03:35:32;;;;;;;34.20;21.20;;;;;;;0.39;83.65;100885.23;107501;1258;88022;-55
2023/01/27 03:46:45;;;;;;;30.40;19.90;;;;;;;0.37;84.03;100887.33;106963;1254;540687;-53
2023/01/27 03:49:20;;;;;;;33.30;21.70;;;;;;;0.38;83.96;100888.70;107406;1259;89032;-54
2023/01/27 03:52:01;;;;;;;30.00;19.60;;;;;;;0.35;83.84;100890.63;107419;1260;95454;-54
2023/01/27 03:54:41;;;;;;;31.40;19.60;;;;;;;0.30;83.97;100892.31;107380;1260;81409;-54
2023/01/27 03:57:20;;;;;;;33.40;19.70;;;;;;;0.29;84.04;100890.77;107423;1253;81372;-56
2023/01/27 03:59:56;;;;;;;33.10;20.90;;;;;;;0.28;84.13;100886.03;107416;1260;99771;-54
2023/01/27 04:08:27;;;;;;;31.30;19.30;;;;;;;0.40;83.79;100893.96;107389;1254;78594;-57
2023/01/27 04:14:06;;;;;;;31.10;19.40;;;;;;;0.45;83.84;100900.89;107413;1254;98615;-54
2023/01/27 04:16:48;;;;;;;32.80;20.70;;;;;;;0.40;83.82;100902.52;107512;1259;87865;-54
2023/01/27 04:19:25;;;;;;;30.90;20.10;;;;;;;0.35;83.81;100904.30;107419;1254;94845;-54
2023/01/27 04:21:56;;;;;;;;;;;;;;;0.30;83.78;100906.63;107496;1254;80358;-56
2023/01/27 04:24:34;;;;;;;30.00;18.80;;;;;;;0.26;83.94;100910.49;107387;1260;81866;-56
2023/01/27 04:27:14;;;;;;;34.00;19.90;;;;;;;0.24;83.96;100911.89;107489;1255;97146;-53
2023/01/27 04:29:45;;;;;;;30.20;19.20;;;;;;;0.24;83.75;100907.60;107517;1258;88692;-54
2023/01/27 04:32:25;;;;;;;30.00;18.30;;;;;;;0.25;83.66;100912.64;107460;1259;95212;-54
2023/01/27 04:34:56;;;;;;;28.30;18.70;;;;;;;0.29;83.81;100909.73;107557;1260;79927;-57
2023/01/27 04:37:35;;;;;;;30.30;19.50;;;;;;;0.33;83.92;100908.70;107516;1260;83290;-56
2023/01/27 04:40:13;;;;;;;28.30;18.90;;;;;;;0.33;84.00;100905.86;107512;1258;99096;-55
2023/01/27 04:42:45;;;;;;;32.50;19.80;;;;;;;0.35;83.97;100906.61;107505;1254;87770;-57
2023/01/27 04:45:16;;;;;;;35.10;19.80;;;;;;;0.35;83.96;100903.78;107429;1259;95146;-56
2023/01/27 04:48:00;;;;;;;30.50;20.00;;;;;;;0.30;84.00;100907.84;107390;1255;80814;-56
2023/01/27 04:50:38;;;;;;;32.50;20.70;;;;;;;0.31;84.09;100912.04;107422;1254;80818;-56
2023/01/27 04:53:14;;;;;;;32.00;20.70;;;;;;;0.31;84.18;100917.48;107300;1256;100159;-56
2023/01/27 04:55:50;;;;;;;34.10;20.80;;;;;;;0.32;84.13;100920.80;107450;1260;88538;-56
2023/01/27 04:58:32;;;;;;;34.90;21.50;;;;;;;0.34;84.27;100920.85;107386;1254;94028;-56
2023/01/27 05:01:06;;;;;;;37.70;23.20;;;;;;;0.36;84.30;100928.27;107413;1254;79314;-57
2023/01/27 05:03:41;;;;;;;;;;;;;;;0.39;84.24;100930.06;107467;1258;83241;-56
2023/01/27 05:06:25;;;;;;;34.50;22.00;;;;;;;0.38;84.13;100929.95;107438;1254;99169;-55
2023/01/27 05:09:02;;;;;;;42.50;26.80;;;;;;;0.35;84.07;100926.77;107271;1254;88752;-56
2023/01/27 05:11:38;;;;;;;;;;;;;;;0.33;84.03;100928.04;107432;1260;95106;-57
2023/01/27 05:14:22;;;;;;;38.10;24.30;;;;;;;0.34;83.79;100933.95;107359;1260;80060;-56
2023/01/27 05:17:02;;;;;;;39.00;27.20;;;;;;;0.34;83.81;100929.02;107468;1259;81163;-55
2023/01/27 05:19:39;;;;;;;38.60;24.90;;;;;;;0.31;83.94;100931.47;107520;1254;97730;-57
2023/01/27 05:22:11;;;;;;;40.00;25.60;;;;;;;0.34;83.86;100935.36;107424;1255;88283;-56
2023/01/27 05:24:43;;;;;;;38.10;24.30;;;;;;;0.31;84.01;100934.69;107447;1254;94503;-55
2023/01/27 05:27:23;;;;;;;36.80;22.80;;;;;;;0.29;84.06;100936.27;107457;1254;78327;-57
2023/01/27 05:30:06;;;;;;;38.80;23.00;;;;;;;0.30;84.02;100944.50;107421;1254;81556;-55
2023/01/27 05:32:45;;;;;;;35.80;23.20;;;;;;;0.30;83.74;100951.44;107415;1254;99466;-55
2023/01/27 05:35:20;;;;;;;39.90;23.90;;;;;;;0.28;83.79;100952.30;107447;1254;88924;-53
2023/01/27 05:37:56;;;;;;;35.80;22.30;;;;;;;0.24;83.95;100950.32;107382;1259;93056;-54
2023/01/27 05:40:35;;;;;;;39.60;23.20;;;;;;;0.22;83.96;100952.16;107420;1254;79204;-55
2023/01/27 05:43:11;;;;;;;38.70;23.50;;;;;;;0.24;84.04;100959.48;107402;1254;81096;-55
2023/01/27 05:45:49;;;;;;;40.50;25.60;;;;;;;0.27;83.96;100957.17;107400;1259;98598;-53
2023/01/27 05:48:28;;;;;;;38.70;23.30;;;;;;;0.30;84.06;100955.54;107405;1254;89079;-53
2023/01/27 05:51:06;;;;;;;39.60;24.10;;;;;;;0.32;84.15;100951.23;107362;1254;94250;-54
2023/01/27 05:53:42;;;;;;;37.00;23.90;;;;;;;0.31;84.10;100948.50;107413;1254;79504;-54
2023/01/27 05:56:20;;;;;;;36.10;23.30;;;;;;;0.31;84.07;100957.91;107476;1254;82874;-54
2023/01/27 05:58:56;;;;;;;35.90;24.20;;;;;;;0.29;84.16;100963.55;107377;1255;98884;-53
2023/01/27 06:01:33;;;;;;;41.20;23.80;;;;;;;0.28;84.02;100963.13;107425;1260;88973;-55
2023/01/27 06:04:06;;;;;;;36.00;22.40;;;;;;;0.25;84.04;100964.22;107436;1260;94550;-55
2023/01/27 06:06:37;;;;;;;33.70;21.60;;;;;;;0.22;84.17;100964.42;107496;1255;81597;-54
2023/01/27 06:09:12;;;;;;;33.10;21.30;;;;;;;0.20;84.15;100968.45;107450;1254;81498;-54
2023/01/27 06:11:46;;;;;;;39.00;23.30;;;;;;;0.20;84.26;100971.80;107482;1254;98333;-54
2023/01/27 06:14:25;;;;;;;37.50;22.40;;;;;;;0.20;84.42;100978.34;107388;1254;87263;-53
2023/01/27 06:17:08;;;;;;;36.10;23.10;;;;;;;0.24;84.45;100981.80;107386;1254;96155;-54
2023/01/27 06:19:52;;;;;;;36.20;23.30;;;;;;;0.27;84.57;100988.38;107431;1254;78170;-55
2023/01/27 06:22:27;;;;;;;39.80;23.40;;;;;;;0.27;84.60;100992.39;107419;1254;82069;-56
2023/01/27 06:24:57;;;;;;;;;;;;;;;0.26;84.61;100993.66;107477;1254;99444;-55
2023/01/27 06:27:33;;;;;;;45.50;24.90;;;;;;;0.24;84.75;100994.73;107372;1259;89927;-56
2023/01/27 06:30:11;;;;;;;43.60;24.70;;;;;;;0.26;84.66;101002.39;107387;1254;92484;-56
2023/01/27 06:32:53;;;;;;;42.50;24.40;;;;;;;0.25;84.66;101004.40;107396;1259;81520;-58
2023/01/27 06:35:29;;;;;;;38.30;23.10;;;;;;;0.22;84.76;101002.69;107414;1254;82007;-58
2023/01/27 06:38:07;;;;;;;36.60;23.10;;;;;;;0.21;84.90;101002.07;107389;1254;97779;-56
2023/01/27 06:40:42;;;;;;;39.10;24.20;;;;;;;0.24;84.82;101007.36;107428;1260;87363;-56
2023/01/27 06:43:15;;;;;;;40.50;23.60;;;;;;;0.25;84.80;101003.89;107410;1254;93737;-56
2023/01/27 06:45:50;;;;;;;40.10;24.10;;;;;;;0.27;84.85;101005.64;107477;1256;78343;-54
2023/01/27 06:48:27;;;;;;;38.20;23.60;;;;;;;0.30;84.95;101006.88;107473;1260;81907;-54
2023/01/27 06:51:05;;;;;;;42.10;25.30;;;;;;;0.35;84.90;101009.88;107552;1255;98809;-55
2023/01/27 06:53:49;;;;;;;43.90;25.70;;;;;;;0.35;84.90;101009.35;107525;1254;89687;-55
2023/01/27 06:56:28;;;;;;;43.50;25.80;;;;;;;0.33;84.97;101011.24;107887;1254;94435;-54
2023/01/27 06:59:04;;;;;;;47.60;26.50;;;;;;;0.35;84.85;101015.70;107432;1254;79882;-54
2023/01/27 07:01:38;;;;;;;44.90;24.30;;;;;;;0.36;84.97;101020.58;107441;1254;81006;-54
2023/01/27 07:04:12;;;;;;;50.00;27.40;;;;;;;0.36;84.99;101019.16;107410;1254;99333;-54
2023/01/27 07:06:47;;;;;;;;;;;;;;;0.42;84.92;101013.28;107462;1254;87663;-57
2023/01/27 07:09:23;;;;;;;47.90;26.60;;;;;;;0.47;85.10;101013.26;107399;1254;94262;-56
2023/01/27 07:11:58;;;;;;;48.90;27.20;;;;;;;0.52;85.07;101013.24;107421;1256;77737;-56
2023/01/27 07:14:32;;;;;;;49.90;27.90;;;;;;;0.62;85.09;101013.59;107414;1254;81933;-55
2023/01/27 07:17:08;;;;;;;49.90;29.30;;;;;;;0.68;85.02;101016.36;107437;1254;97949;-58
2023/01/27 07:19:44;;;;;;;52.50;28.40;;;;;;;0.73;84.83;101009.77;107381;1259;89365;-55
2023/01/27 07:22:19;;;;;;;47.90;28.50;;;;;;;0.77;84.41;101012.46;107396;1254;96077;-53
2023/01/27 07:24:58;;;;;;;51.40;29.50;;;;;;;0.81;84.40;101013.80;107431;1254;79632;-57
2023/01/27 07:27:34;;;;;;;49.90;28.80;;;;;;;0.84;84.24;101016.94;107342;1254;81845;-57
2023/01/27 07:30:10;;;;;;;51.10;29.90;;;;;;;0.85;84.05;101014.87;107455;1254;96722;-55
2023/01/27 07:32:49;;;;;;;53.70;31.10;;;;;;;0.89;84.02;101017.42;107433;1254;89365;-55
2023/01/27 07:35:27;;;;;;;53.20;29.90;;;;;;;0.90;83.76;101018.60;107438;1254;92870;-56
2023/01/27 07:38:07;;;;;;;56.00;32.30;;;;;;;0.97;83.82;101017.54;107448;1254;79387;-56
2023/01/27 07:40:48;;;;;;;54.90;30.30;;;;;;;1.03;83.83;101016.42;107451;1259;82085;-54
2023/01/27 07:43:28;;;;;;;53.80;30.80;;;;;;;1.09;84.04;101012.00;107518;1259;99733;-54
2023/01/27 07:46:04;;;;;;;55.50;32.50;;;;;;;1.15;83.31;101013.72;107501;1254;89339;-56
2023/01/27 07:48:45;;;;;;;55.80;32.00;;;;;;;1.20;83.33;101010.52;107411;1254;94314;-56
2023/01/27 07:51:25;;;;;;;54.10;32.00;;;;;;;1.26;83.14;101016.10;107383;1257;80676;-56
2023/01/27 07:54:04;;;;;;;56.70;32.60;;;;;;;1.25;82.84;101017.56;107392;1254;83529;-56
2023/01/27 07:56:42;;;;;;;54.60;31.30;;;;;;;1.34;82.72;101013.91;107415;1257;100668;-54
2023/01/27 07:59:16;;;;;;;59.60;31.90;;;;;;;1.40;82.54;101015.52;107402;1254;88737;-54
2023/01/27 08:01:47;;;;;;;53.60;31.30;;;;;;;1.49;82.56;101022.13;107409;1254;93950;-56
2023/01/27 08:04:20;;;;;;;51.60;30.50;;;;;;;1.55;82.41;101015.98;107414;1258;78954;-57
2023/01/27 08:06:56;;;;;;;59.90;32.20;;;;;;;1.63;82.31;101017.85;107423;1254;82427;-57
2023/01/27 08:09:39;;;;;;;58.80;33.80;;;;;;;1.66;81.83;101018.17;107386;1258;99749;-56
2023/01/27 08:12:13;;;;;;;56.80;33.50;;;;;;;1.66;81.62;101022.58;107397;1254;89130;-56
2023/01/27 08:14:53;;;;;;;59.60;34.10;;;;;;;1.66;81.75;101019.55;107416;1256;95186;-56
2023/01/27 08:17:27;;;;;;;58.20;33.80;;;;;;;1.68;81.66;101018.38;107381;1254;77089;-56
2023/01/27 08:20:01;;;;;;;54.70;32.10;;;;;;;1.72;81.62;101022.30;107445;1254;81567;-55
2023/01/27 08:22:34;;;;;;;52.40;30.60;;;;;;;1.71;81.43;101021.67;107402;1254;99307;-56
2023/01/27 08:25:08;;;;;;;53.40;30.80;;;;;;;1.67;81.51;101024.24;107286;1254;88565;-56
2023/01/27 08:27:44;;;;;;;53.60;30.70;;;;;;;1.69;81.32;101027.17;107474;1254;96254;-57
2023/01/27 08:30:17;;;;;;;54.30;31.70;;;;;;;1.70;81.27;101031.64;107513;1254;80547;-55
2023/01/27 08:32:55;;;;;;;54.50;31.30;;;;;;;1.74;81.23;101030.82;107451;1256;82918;-57
2023/01/27 08:35:34;;;;;;;52.70;31.30;;;;;;;1.80;81.11;101033.05;107462;1254;99694;-55
2023/01/27 08:38:05;;;;;;;58.60;32.80;;;;;;;1.83;81.22;101032.48;107458;1254;87898;-55
2023/01/27 08:40:47;;;;;;;54.60;31.50;;;;;;;1.85;81.25;101039.21;107426;1258;94703;-56
2023/01/27 08:43:23;;;;;;;49.40;29.60;;;;;;;1.91;81.04;101040.05;107239;1259;78267;-56
2023/01/27 08:45:59;;;;;;;52.50;30.40;;;;;;;1.89;80.75;101041.60;107452;1254;82732;-58
2023/01/27 08:48:40;;;;;;;54.80;32.30;;;;;;;1.95;80.58;101043.98;107379;1257;98256;-57
2023/01/27 08:51:19;;;;;;;54.60;31.20;;;;;;;1.92;80.21;101041.72;107173;1254;88846;-58
2023/01/27 08:53:59;;;;;;;51.20;30.90;;;;;;;2.00;80.40;101041.30;107391;1254;97053;-57
2023/01/27 08:56:35;;;;;;;49.20;29.80;;;;;;;2.13;80.32;101040.39;107394;1254;79415;-57
2023/01/27 08:59:07;;;;;;;53.80;30.80;;;;;;;2.18;80.11;101045.31;107428;1254;80780;-58
2023/01/27 09:01:47;;;;;;;51.60;29.90;;;;;;;2.23;79.73;101050.09;107476;1254;99092;-58
2023/01/27 09:04:22;;;;;;;49.10;28.20;;;;;;;2.29;79.68;101046.75;107392;1257;88593;-58
2023/01/27 09:07:03;;;;;;;44.70;28.30;;;;;;;2.43;79.45;101051.14;107453;1254;94605;-56
2023/01/27 09:09:40;;;;;;;47.60;28.10;;;;;;;2.50;79.27;101047.77;107460;1258;77845;-56
2023/01/27 09:12:19;;;;;;;48.00;27.60;;;;;;;2.62;79.27;101051.20;107429;1254;82616;-57
2023/01/27 09:15:05;;;;;;;37.90;23.20;;;;;;;2.68;78.37;101049.66;107426;1254;98252;-55
2023/01/27 09:17:47;;;;;;;43.70;24.50;;;;;;;2.71;78.44;101048.21;107400;1254;89742;-55
2023/01/27 09:20:25;;;;;;;87.00;34.20;;;;;;;2.78;78.01;101045.98;107416;1254;93154;-55
2023/01/27 09:23:00;;;;;;;99.40;46.50;;;;;;;2.65;77.67;101044.92;107459;1254;78766;-54
2023/01/27 09:25:39;;;;;;;79.70;43.10;;;;;;;2.66;77.51;101040.62;107454;1256;81893;-58
2023/01/27 09:28:16;;;;;;;40.70;25.40;;;;;;;2.66;77.51;101043.99;107407;1254;99215;-57
2023/01/27 09:30:57;;;;;;;43.40;26.00;;;;;;;2.61;77.23;101048.08;107421;1254;89793;-57
2023/01/27 09:33:37;;;;;;;41.40;25.60;;;;;;;2.56;77.24;101047.05;107443;1254;94769;-56
2023/01/27 09:36:14;;;;;;;37.10;23.30;;;;;;;2.59;76.95;101047.18;107447;1254;79595;-57
2023/01/27 09:38:55;;;;;;;31.80;20.30;;;;;;;2.62;76.71;101044.65;107447;1254;82586;-56
2023/01/27 09:42:16;;;;;;;34.20;21.80;;;;;;;2.47;76.45;101047.33;107375;1254;101766;-58
2023/01/27 09:45:11;;;;;;;39.00;23.20;;;;;;;2.47;76.96;101047.65;106898;1260;88548;-57
2023/01/27 09:48:08;;;;;;;39.60;25.00;;;;;;;2.48;76.73;101051.88;107402;1254;94810;-58
2023/01/27 09:50:59;;;;;;;41.50;24.20;;;;;;;2.59;76.79;101052.93;107409;1259;77498;-61
2023/01/27 09:54:16;;;;;;;33.70;22.60;;;;;;;2.62;76.92;101051.20;107466;1254;80773;-57
2023/01/27 09:57:08;;;;;;;37.20;21.90;;;;;;;2.69;76.73;101051.06;107415;1254;99436;-56
2023/01/27 10:00:09;;;;;;;37.90;20.50;;;;;;;2.64;76.82;101045.36;107457;1254;88177;-56
2023/01/27 10:03:14;;;;;;;39.00;21.60;;;;;;;2.59;76.89;101049.12;107406;1254;93585;-54
2023/01/27 10:06:18;;;;;;;43.10;23.90;;;;;;;2.47;76.26;101044.23;107211;1254;78465;-55
2023/01/27 10:09:23;;;;;;;50.10;24.80;;;;;;;2.44;76.59;101046.64;107421;1254;82711;-55
2023/01/27 10:12:11;;;;;;;54.40;26.00;;;;;;;2.46;76.55;101046.83;107484;1258;100391;-55
2023/01/27 10:15:01;;;;;;;41.40;24.30;;;;;;;2.51;76.64;101051.06;107441;1256;89049;-56
2023/01/27 10:17:48;;;;;;;33.60;21.30;;;;;;;2.48;76.78;101048.79;107431;1256;94947;-57
2023/01/27 10:20:37;;;;;;;36.60;21.10;;;;;;;2.39;76.17;101046.83;107486;1254;77409;-54
2023/01/27 10:23:29;;;;;;;38.70;21.70;;;;;;;2.38;76.36;101053.66;107480;1254;82374;-55
2023/01/27 10:26:17;;;;;;;35.60;21.60;;;;;;;2.38;76.55;101058.27;107461;1254;99302;-55
2023/01/27 10:29:04;;;;;;;35.90;21.20;;;;;;;2.39;76.49;101058.03;107409;1254;89901;-55
2023/01/27 10:31:50;;;;;;;37.80;21.70;;;;;;;2.43;76.62;101062.39;107363;1259;93688;-54
2023/01/27 10:34:36;;;;;;;37.40;22.50;;;;;;;2.51;76.63;101066.00;107405;1254;79172;-54
2023/01/27 10:37:23;;;;;;;39.20;23.60;;;;;;;2.54;76.68;101073.42;107465;1254;81749;-55
2023/01/27 10:40:08;;;;;;;37.50;23.10;;;;;;;2.58;76.60;101075.20;107432;1254;99007;-55
2023/01/27 10:42:52;;;;;;;41.10;24.10;;;;;;;2.54;76.64;101076.45;107406;1254;88787;-54
2023/01/27 10:45:36;;;;;;;38.50;24.40;;;;;;;2.56;76.56;101077.69;107420;1254;95821;-57
2023/01/27 10:48:42;;;;;;;37.20;23.60;;;;;;;2.59;76.38;101080.66;107420;1258;77575;-57
2023/01/27 10:51:27;;;;;;;41.00;25.50;;;;;;;2.48;76.69;101078.32;107448;1258;82923;-56
2023/01/27 10:54:09;;;;;;;42.70;23.40;;;;;;;2.42;76.82;101086.94;107474;1254;100120;-56
2023/01/27 10:56:58;;;;;;;43.10;24.10;;;;;;;2.40;76.69;101088.38;107414;1254;89413;-58
2023/01/27 10:59:46;;;;;;;37.40;23.70;;;;;;;2.33;76.58;101084.42;107420;1254;95499;-57
2023/01/27 11:02:31;;;;;;;42.10;25.40;;;;;;;2.27;76.65;101085.11;107432;1254;80543;-55
2023/01/27 11:05:14;;;;;;;40.90;23.40;;;;;;;2.28;76.97;101085.38;107446;1254;81500;-57
2023/01/27 11:07:59;;;;;;;46.70;24.80;;;;;;;2.28;77.10;101084.52;107432;1257;99635;-58
2023/01/27 11:11:42;;;;;;;45.50;26.30;;;;;;;2.36;77.10;101079.08;107440;1254;90027;-55
2023/01/27 11:13:38;;;;;;;47.30;26.90;;;;;;;2.44;77.13;101075.45;107349;1258;93756;-55
2023/01/27 11:16:19;;;;;;;48.60;26.50;;;;;;;2.50;77.32;101072.98;107415;1254;79890;-57
2023/01/27 11:19:03;;;;;;;45.60;26.10;;;;;;;2.60;77.27;101065.11;107420;1254;83841;-56
2023/01/27 11:21:40;;;;;;;39.30;24.80;;;;;;;2.68;77.27;101060.02;107442;1256;98479;-56
2023/01/27 11:24:32;;;;;;;41.50;24.60;;;;;;;2.77;77.31;101060.30;107358;1254;88364;-55
2023/01/27 11:27:22;;;;;;;42.40;25.00;;;;;;;2.87;77.38;101053.78;107419;1256;95231;-56
2023/01/27 11:30:06;;;;;;;35.40;22.10;;;;;;;2.97;77.29;101054.23;107485;1254;80022;-56
2023/01/27 11:32:56;;;;;;;33.00;21.20;;;;;;;3.02;77.32;101050.65;107459;1256;81598;-56
2023/01/27 11:35:30;;;;;;;33.60;20.80;;;;;;;3.06;76.87;101052.41;107478;1257;99082;-54
2023/01/27 11:38:03;;;;;;;33.10;21.60;;;;;;;3.09;76.87;101053.41;107436;1254;90146;-57
2023/01/27 11:40:40;;;;;;;36.80;22.50;;;;;;;3.05;76.52;101051.30;107417;1258;92963;-56
2023/01/27 11:43:19;;;;;;;39.40;22.30;;;;;;;3.05;76.51;101052.70;107393;1257;79966;-56
2023/01/27 11:46:01;;;;;;;39.80;24.70;;;;;;;3.03;76.79;101051.45;107030;1255;595888;-57
2023/01/27 11:48:41;;;;;;;38.10;24.00;;;;;;;3.01;76.88;101044.13;107400;1254;98007;-56
2023/01/27 11:51:20;;;;;;;39.50;24.50;;;;;;;2.98;77.03;101049.69;107279;1254;89176;-55
2023/01/27 11:54:05;;;;;;;41.60;24.70;;;;;;;3.00;77.09;101047.40;107394;1254;95838;-55
2023/01/27 11:56:49;;;;;;;42.20;25.90;;;;;;;2.94;77.20;101049.49;107417;1254;81097;-55
2023/01/27 11:59:31;;;;;;;44.30;25.50;;;;;;;2.98;77.21;101047.41;107410;1254;83627;-55
2023/01/27 12:02:22;;;;;;;42.60;27.60;;;;;;;3.01;77.04;101045.72;107408;1254;99693;-56
2023/01/27 12:05:00;;;;;;;45.40;27.30;;;;;;;3.09;76.99;101046.53;107418;1258;89547;-57
2023/01/27 12:07:54;;;;;;;41.00;24.90;;;;;;;3.11;77.14;101045.80;107418;1256;94474;-57
2023/01/27 12:10:41;;;;;;;41.90;24.20;;;;;;;3.12;77.20;101044.66;107460;1254;80225;-57
2023/01/27 12:13:25;;;;;;;35.30;21.60;;;;;;;3.07;77.18;101042.02;107393;1256;82164;-58
2023/01/27 12:16:06;;;;;;;38.10;23.20;;;;;;;2.99;77.19;101046.96;107412;1254;100191;-62
2023/01/27 12:18:59;;;;;;;41.00;24.50;;;;;;;2.87;77.18;101048.25;107443;1254;88230;-55
2023/01/27 12:21:45;;;;;;;41.10;23.60;;;;;;;2.81;77.05;101046.28;107443;1254;94820;-55
2023/01/27 12:24:30;;;;;;;44.40;26.30;;;;;;;2.82;77.15;101051.18;107425;1254;78037;-54
2023/01/27 12:27:22;;;;;;;43.00;26.90;;;;;;;2.83;77.00;101049.48;107466;1254;80899;-58
2023/01/27 12:30:00;;;;;;;40.80;23.40;;;;;;;2.80;77.32;101049.96;107459;1257;96012;-56
2023/01/27 12:32:47;;;;;;;39.40;23.30;;;;;;;2.77;77.23;101052.11;107432;1254;89444;-56
2023/01/27 12:35:32;;;;;;;46.20;25.40;;;;;;;2.75;77.50;101051.19;107413;1254;94060;-55
2023/01/27 12:38:16;;;;;;;46.80;25.40;;;;;;;2.73;77.52;101050.09;107435;1256;80443;-55
2023/01/27 12:41:03;;;;;;;46.00;25.10;;;;;;;2.77;77.77;101052.88;107442;1254;82276;-56
2023/01/27 12:43:54;;;;;;;46.60;26.60;;;;;;;2.84;77.84;101054.23;107422;1254;100156;-60
2023/01/27 12:46:27;;;;;;;48.40;26.90;;;;;;;2.81;77.99;101055.69;107477;1254;89057;-58